createdAt,value
2023-01-19T00:00:28.977Z,98221.00
2023-01-19T00:01:15.890Z,98225.13
2023-01-19T00:02:02.714Z,98218.09
2023-01-19T00:02:50.900Z,98213.38
2023-01-19T00:03:37.811Z,98219.38
2023-01-19T00:04:24.711Z,98219.38
2023-01-19T00:05:11.803Z,98229.84
2023-01-19T00:05:58.669Z,98228.38
2023-01-19T00:06:45.582Z,98222.34
2023-01-19T00:07:32.733Z,98230.16
2023-01-19T00:08:19.550Z,98230.63
2023-01-19T00:09:06.396Z,98229.53
2023-01-19T00:09:53.212Z,98227.06
2023-01-19T00:10:40.284Z,98233.88
2023-01-19T00:11:27.304Z,98237.38
2023-01-19T00:12:14.120Z,98239.41
2023-01-19T00:13:01.341Z,98232.91
2023-01-19T00:13:51.229Z,98237.62
2023-01-19T00:14:38.112Z,98236.66
2023-01-19T00:15:24.948Z,98233.47
2023-01-19T00:16:11.903Z,98231.78
2023-01-19T00:16:59.301Z,98235.84
2023-01-19T00:17:46.149Z,98233.41
2023-01-19T00:18:33.541Z,98235.97
2023-01-19T00:19:20.354Z,98229.41
2023-01-19T00:20:09.130Z,98234.13
2023-01-19T00:20:55.945Z,98225.13
2023-01-19T00:21:42.755Z,98227.75
2023-01-19T00:22:29.878Z,98228.38
2023-01-19T00:23:17.112Z,98233.94
2023-01-19T00:24:04.126Z,98235.09
2023-01-19T00:24:50.940Z,98240.75
2023-01-19T00:25:44.935Z,98238.91
2023-01-19T00:26:31.771Z,98236.56
2023-01-19T00:27:18.809Z,98231.88
2023-01-19T00:28:05.730Z,98236.03
2023-01-19T00:28:53.227Z,98232.97
2023-01-19T00:29:40.074Z,98230.91
2023-01-19T00:30:26.923Z,98241.19
2023-01-19T00:31:13.894Z,98233.03
2023-01-19T00:32:01.370Z,98239.84
2023-01-19T00:32:48.280Z,98233.66
2023-01-19T00:33:35.312Z,98240.66
2023-01-19T00:34:22.130Z,98245.97
2023-01-19T00:35:09.140Z,98247.19
2023-01-19T00:35:56.281Z,98250.16
2023-01-19T00:36:43.420Z,98247.34
2023-01-19T00:37:30.220Z,98248.56
2023-01-19T00:38:17.024Z,98253.28
2023-01-19T00:39:03.960Z,98254.91
2023-01-19T00:39:50.898Z,98254.78
2023-01-19T00:40:37.849Z,98261.38
2023-01-19T00:41:44.660Z,98259.91
2023-01-19T00:42:40.660Z,98256.72
2023-01-19T00:43:28.370Z,98262.63
2023-01-19T00:44:15.339Z,98255.41
2023-01-19T00:45:02.192Z,98258.13
2023-01-19T00:45:49.115Z,98258.78
2023-01-19T00:46:35.989Z,98265.16
2023-01-19T00:47:22.805Z,98259.94
2023-01-19T00:48:09.760Z,98264.75
2023-01-19T00:48:56.582Z,98263.44
2023-01-19T00:49:43.464Z,98271.47
2023-01-19T00:50:31.630Z,98263.25
2023-01-19T00:51:18.430Z,98266.44
2023-01-19T00:52:05.567Z,98272.22
2023-01-19T00:52:53.965Z,98268.63
2023-01-19T00:53:40.749Z,98271.03
2023-01-19T00:54:27.762Z,98274.91
2023-01-19T00:55:15.429Z,98277.59
2023-01-19T00:56:02.232Z,98279.75
2023-01-19T00:56:49.087Z,98283.84
2023-01-19T00:57:36.168Z,98277.28
2023-01-19T00:58:23.002Z,98273.59
2023-01-19T00:59:10.921Z,98269.25
2023-01-19T00:59:57.761Z,98280.97
2023-01-19T01:00:45.103Z,98286.16
2023-01-19T01:01:45.485Z,98279.34
2023-01-19T01:02:33.917Z,98286.50
2023-01-19T01:03:20.881Z,98279.00
2023-01-19T01:04:07.719Z,98280.78
2023-01-19T01:04:55.146Z,98275.16
2023-01-19T01:05:42.718Z,98273.53
2023-01-19T01:06:29.550Z,98279.69
2023-01-19T01:07:16.351Z,98274.34
2023-01-19T01:08:03.248Z,98276.44
2023-01-19T01:08:50.101Z,98272.31
2023-01-19T01:09:36.943Z,98274.56
2023-01-19T01:10:26.378Z,98275.38
2023-01-19T01:11:13.201Z,98269.63
2023-01-19T01:12:00.177Z,98275.75
2023-01-19T01:12:54.822Z,98271.94
2023-01-19T01:13:54.577Z,98281.50
2023-01-19T01:14:42.044Z,98288.50
2023-01-19T01:15:30.103Z,98288.44
2023-01-19T01:16:17.340Z,98292.31
2023-01-19T01:17:04.263Z,98284.16
2023-01-19T01:17:53.259Z,98287.66
2023-01-19T01:18:40.110Z,98287.94
2023-01-19T01:19:26.969Z,98297.03
2023-01-19T01:20:18.716Z,98304.19
2023-01-19T01:21:07.028Z,98304.38
2023-01-19T01:21:53.861Z,98308.25
2023-01-19T01:22:40.972Z,98306.03
2023-01-19T01:23:27.908Z,98303.28
2023-01-19T01:24:14.759Z,98307.16
2023-01-19T01:25:01.591Z,98311.31
2023-01-19T01:25:48.680Z,98306.78
2023-01-19T01:26:35.639Z,98302.19
2023-01-19T01:27:22.649Z,98307.97
2023-01-19T01:28:10.570Z,98307.09
2023-01-19T01:28:57.483Z,98319.16
2023-01-19T01:29:46.719Z,98312.59
2023-01-19T01:30:33.578Z,98309.25
2023-01-19T01:31:20.478Z,98322.97
2023-01-19T01:32:08.670Z,98320.94
2023-01-19T01:32:55.805Z,98325.66
2023-01-19T01:33:42.644Z,98337.81
2023-01-19T01:34:29.492Z,98341.69
2023-01-19T01:35:16.551Z,98337.16
2023-01-19T01:36:03.704Z,98336.16
2023-01-19T01:36:50.553Z,98343.16
2023-01-19T01:37:37.901Z,98343.62
2023-01-19T01:38:24.739Z,98345.38
2023-01-19T01:39:11.541Z,98348.44
2023-01-19T01:39:58.350Z,98355.53
2023-01-19T01:40:45.190Z,98353.31
2023-01-19T01:41:32.531Z,98350.16
2023-01-19T01:42:20.780Z,98360.25
2023-01-19T01:43:14.870Z,98357.25
2023-01-19T01:44:08.448Z,98358.41
2023-01-19T01:45:00.681Z,98350.06
2023-01-19T01:45:47.705Z,98352.56
2023-01-19T01:46:34.567Z,98359.47
2023-01-19T01:47:27.461Z,98345.66
2023-01-19T01:48:27.793Z,98347.06
2023-01-19T01:49:16.817Z,98345.59
2023-01-19T01:50:16.886Z,98346.69
2023-01-19T01:51:25.444Z,98359.81
2023-01-19T01:52:14.293Z,98349.84
2023-01-19T01:53:12.817Z,98349.84
2023-01-19T01:54:07.663Z,98352.34
2023-01-19T01:54:54.582Z,98356.03
2023-01-19T01:55:46.370Z,98357.16
2023-01-19T01:56:36.499Z,98347.66
2023-01-19T01:57:23.338Z,98349.75
2023-01-19T01:58:11.125Z,98349.13
2023-01-19T01:58:58.672Z,98349.28
2023-01-19T01:59:47.892Z,98342.22
2023-01-19T02:00:54.797Z,98335.84
2023-01-19T02:02:00.666Z,98338.13
2023-01-19T02:02:56.940Z,98332.97
2023-01-19T02:03:43.914Z,98329.66
2023-01-19T02:04:31.797Z,98328.38
2023-01-19T02:05:21.062Z,98320.72
2023-01-19T02:06:08.281Z,98327.56
2023-01-19T02:07:13.576Z,98333.97
2023-01-19T02:08:23.179Z,98327.56
2023-01-19T02:09:29.634Z,98327.16
2023-01-19T02:10:35.184Z,98328.28
2023-01-19T02:11:41.200Z,98338.25
2023-01-19T02:12:47.339Z,98338.19
2023-01-19T02:13:40.051Z,98340.28
2023-01-19T02:14:27.977Z,98344.34
2023-01-19T02:15:16.913Z,98351.81
2023-01-19T02:16:07.727Z,98352.94
2023-01-19T02:16:54.885Z,98355.59
2023-01-19T02:17:42.301Z,98356.59
2023-01-19T02:18:31.285Z,98351.72
2023-01-19T02:19:24.548Z,98363.50
2023-01-19T02:20:11.780Z,98361.87
2023-01-19T02:21:19.035Z,98346.00
2023-01-19T02:22:12.048Z,98349.69
2023-01-19T02:23:04.024Z,98353.75
2023-01-19T02:23:55.891Z,98352.63
2023-01-19T02:24:43.254Z,98359.75
2023-01-19T02:25:30.118Z,98356.25
2023-01-19T02:26:19.724Z,98365.19
2023-01-19T02:27:07.603Z,98358.34
2023-01-19T02:27:55.309Z,98358.03
2023-01-19T02:28:45.102Z,98352.22
2023-01-19T02:29:33.021Z,98355.13
2023-01-19T02:30:20.011Z,98356.78
2023-01-19T02:31:07.099Z,98345.91
2023-01-19T02:31:55.842Z,98342.41
2023-01-19T02:32:43.140Z,98347.47
2023-01-19T02:33:30.161Z,98351.34
2023-01-19T02:34:19.549Z,98347.31
2023-01-19T02:35:07.069Z,98344.88
2023-01-19T02:35:54.611Z,98347.25
2023-01-19T02:36:49.282Z,98342.53
2023-01-19T02:37:37.781Z,98343.41
2023-01-19T02:38:27.227Z,98341.59
2023-01-19T02:39:16.352Z,98348.66
2023-01-19T02:40:04.892Z,98356.56
2023-01-19T02:40:52.281Z,98361.56
2023-01-19T02:41:42.815Z,98364.22
2023-01-19T02:42:44.740Z,98377.44
2023-01-19T02:43:32.209Z,98384.66
2023-01-19T02:44:21.339Z,98384.34
2023-01-19T02:45:09.796Z,98388.34
2023-01-19T02:45:57.389Z,98405.72
2023-01-19T02:46:44.209Z,98406.41
2023-01-19T02:47:39.066Z,98407.75
2023-01-19T02:48:26.090Z,98403.44
2023-01-19T02:49:13.812Z,98413.25
2023-01-19T02:50:01.225Z,98420.97
2023-01-19T02:50:51.868Z,98422.13
2023-01-19T02:51:38.545Z,98422.63
2023-01-19T02:52:26.196Z,98424.31
2023-01-19T02:53:39.860Z,98423.75
2023-01-19T02:54:46.053Z,98415.94
2023-01-19T02:55:33.101Z,98423.63
2023-01-19T02:56:46.390Z,98408.81
2023-01-19T02:57:40.150Z,98412.47
2023-01-19T02:58:53.009Z,98421.78
2023-01-19T02:59:54.630Z,98417.97
2023-01-19T03:01:08.780Z,98420.00
2023-01-19T03:02:11.821Z,98440.97
2023-01-19T03:03:28.345Z,98436.81
2023-01-19T03:04:29.886Z,98443.63
2023-01-19T03:05:20.260Z,98439.63
2023-01-19T03:06:32.994Z,98442.59
2023-01-19T03:07:28.681Z,98441.31
2023-01-19T03:08:30.664Z,98436.13
2023-01-19T03:09:28.562Z,98434.12
2023-01-19T03:10:23.109Z,98437.09
2023-01-19T03:11:12.529Z,98437.91
2023-01-19T03:12:13.920Z,98436.13
2023-01-19T03:13:16.390Z,98430.97
2023-01-19T03:14:15.392Z,98438.31
2023-01-19T03:15:09.938Z,98437.47
2023-01-19T03:16:00.603Z,98452.97
2023-01-19T03:16:55.343Z,98448.28
2023-01-19T03:17:44.756Z,98454.97
2023-01-19T03:18:32.879Z,98445.66
2023-01-19T03:19:19.890Z,98448.66
2023-01-19T03:20:07.951Z,98451.63
2023-01-19T03:20:58.280Z,98462.31
2023-01-19T03:21:48.151Z,98458.00
2023-01-19T03:22:35.351Z,98458.50
2023-01-19T03:23:25.688Z,98448.28
2023-01-19T03:24:14.019Z,98450.12
2023-01-19T03:25:01.578Z,98451.97
2023-01-19T03:25:49.710Z,98447.78
2023-01-19T03:26:41.374Z,98449.31
2023-01-19T03:27:40.973Z,98447.63
2023-01-19T03:28:29.801Z,98440.97
2023-01-19T03:29:18.603Z,98442.28
2023-01-19T03:30:09.480Z,98441.13
2023-01-19T03:31:06.523Z,98443.12
2023-01-19T03:31:53.816Z,98440.13
2023-01-19T03:32:52.232Z,98433.97
2023-01-19T03:33:42.089Z,98434.66
2023-01-19T03:34:29.739Z,98429.31
2023-01-19T03:35:17.139Z,98435.47
2023-01-19T03:36:08.903Z,98443.84
2023-01-19T03:36:58.181Z,98449.84
2023-01-19T03:37:46.420Z,98449.53
2023-01-19T03:38:36.277Z,98440.03
2023-01-19T03:39:24.992Z,98449.69
2023-01-19T03:40:12.389Z,98440.69
2023-01-19T03:41:01.735Z,98442.53
2023-01-19T03:41:51.867Z,98442.38
2023-01-19T03:42:39.351Z,98438.22
2023-01-19T03:43:26.850Z,98426.91
2023-01-19T03:44:13.849Z,98424.38
2023-01-19T03:45:01.476Z,98424.75
2023-01-19T03:45:48.925Z,98431.87
2023-01-19T03:46:35.977Z,98423.56
2023-01-19T03:47:23.419Z,98423.22
2023-01-19T03:48:10.273Z,98433.41
2023-01-19T03:48:57.533Z,98426.69
2023-01-19T03:49:45.600Z,98436.88
2023-01-19T03:50:32.510Z,98431.87
2023-01-19T03:51:19.772Z,98436.19
2023-01-19T03:52:06.761Z,98431.87
2023-01-19T03:53:03.286Z,98431.87
2023-01-19T03:53:50.271Z,98426.38
2023-01-19T03:54:37.301Z,98430.53
2023-01-19T03:55:24.252Z,98425.38
2023-01-19T03:56:25.235Z,98421.56
2023-01-19T03:57:12.702Z,98403.91
2023-01-19T03:57:59.604Z,98400.41
2023-01-19T03:58:46.622Z,98393.25
2023-01-19T03:59:33.481Z,98393.75
2023-01-19T04:00:20.472Z,98399.22
2023-01-19T04:01:07.521Z,98399.06
2023-01-19T04:01:54.461Z,98399.91
2023-01-19T04:02:41.415Z,98421.03
2023-01-19T04:03:28.822Z,98429.34
2023-01-19T04:04:16.010Z,98428.88
2023-01-19T04:05:02.832Z,98436.53
2023-01-19T04:05:49.813Z,98448.53
2023-01-19T04:06:36.750Z,98447.84
2023-01-19T04:07:23.620Z,98447.69
2023-01-19T04:08:11.282Z,98455.03
2023-01-19T04:08:58.080Z,98460.66
2023-01-19T04:09:44.983Z,98458.53
2023-01-19T04:10:32.167Z,98465.34
2023-01-19T04:11:19.032Z,98466.66
2023-01-19T04:12:05.974Z,98471.84
2023-01-19T04:12:58.593Z,98470.34
2023-01-19T04:13:45.651Z,98474.34
2023-01-19T04:14:32.470Z,98470.66
2023-01-19T04:15:19.610Z,98477.00
2023-01-19T04:16:07.137Z,98476.50
2023-01-19T04:16:53.923Z,98467.69
2023-01-19T04:17:40.946Z,98468.34
2023-01-19T04:18:28.955Z,98464.34
2023-01-19T04:19:15.759Z,98453.03
2023-01-19T04:20:02.812Z,98447.84
2023-01-19T04:20:49.670Z,98452.66
2023-01-19T04:21:36.530Z,98444.84
2023-01-19T04:22:23.351Z,98450.19
2023-01-19T04:23:10.157Z,98447.34
2023-01-19T04:23:57.001Z,98449.84
2023-01-19T04:24:43.841Z,98446.34
2023-01-19T04:25:30.791Z,98455.69
2023-01-19T04:26:17.636Z,98452.19
2023-01-19T04:27:04.687Z,98457.19
2023-01-19T04:27:55.652Z,98454.03
2023-01-19T04:28:42.976Z,98452.38
2023-01-19T04:29:29.861Z,98456.34
2023-01-19T04:30:17.021Z,98446.87
2023-01-19T04:31:04.777Z,98454.19
2023-01-19T04:31:51.626Z,98455.19
2023-01-19T04:32:38.537Z,98441.53
2023-01-19T04:33:25.880Z,98448.53
2023-01-19T04:34:12.709Z,98444.53
2023-01-19T04:34:59.865Z,98443.88
2023-01-19T04:35:47.385Z,98438.72
2023-01-19T04:36:34.232Z,98438.72
2023-01-19T04:37:21.114Z,98438.37
2023-01-19T04:38:07.949Z,98437.41
2023-01-19T04:38:55.376Z,98439.19
2023-01-19T04:39:42.290Z,98425.56
2023-01-19T04:40:29.131Z,98440.88
2023-01-19T04:41:16.079Z,98435.22
2023-01-19T04:42:03.008Z,98441.38
2023-01-19T04:42:49.871Z,98430.06
2023-01-19T04:43:36.723Z,98432.06
2023-01-19T04:44:24.272Z,98424.59
2023-01-19T04:45:12.060Z,98420.09
2023-01-19T04:45:59.457Z,98416.25
2023-01-19T04:46:46.322Z,98406.09
2023-01-19T04:47:33.229Z,98412.25
2023-01-19T04:48:20.502Z,98421.06
2023-01-19T04:49:07.434Z,98426.22
2023-01-19T04:49:54.300Z,98421.56
2023-01-19T04:50:42.126Z,98424.91
2023-01-19T04:51:29.100Z,98431.56
2023-01-19T04:52:16.021Z,98431.41
2023-01-19T04:53:03.229Z,98436.72
2023-01-19T04:53:50.240Z,98429.25
2023-01-19T04:54:37.127Z,98422.25
2023-01-19T04:55:24.244Z,98427.06
2023-01-19T04:56:11.142Z,98424.06
2023-01-19T04:56:58.471Z,98427.06
2023-01-19T04:57:45.674Z,98424.56
2023-01-19T04:58:32.456Z,98422.75
2023-01-19T04:59:20.631Z,98436.72
2023-01-19T05:00:08.479Z,98442.22
2023-01-19T05:00:55.439Z,98438.03
2023-01-19T05:01:42.376Z,98441.22
2023-01-19T05:02:29.279Z,98449.88
2023-01-19T05:03:16.197Z,98445.22
2023-01-19T05:04:05.387Z,98456.84
2023-01-19T05:04:52.264Z,98463.03
2023-01-19T05:05:39.211Z,98463.84
2023-01-19T05:06:26.092Z,98462.16
2023-01-19T05:07:12.908Z,98470.34
2023-01-19T05:07:59.782Z,98480.31
2023-01-19T05:08:46.649Z,98484.50
2023-01-19T05:09:33.549Z,98484.00
2023-01-19T05:10:20.591Z,98486.50
2023-01-19T05:11:07.429Z,98483.16
2023-01-19T05:11:54.337Z,98476.81
2023-01-19T05:12:42.352Z,98478.16
2023-01-19T05:13:29.278Z,98482.66
2023-01-19T05:14:16.123Z,98476.84
2023-01-19T05:15:02.993Z,98478.81
2023-01-19T05:15:50.609Z,98488.31
2023-01-19T05:16:37.441Z,98483.66
2023-01-19T05:17:24.360Z,98485.63
2023-01-19T05:18:11.421Z,98481.97
2023-01-19T05:18:58.421Z,98487.47
2023-01-19T05:19:45.246Z,98493.81
2023-01-19T05:20:32.121Z,98492.47
2023-01-19T05:21:19.244Z,98490.66
2023-01-19T05:22:07.162Z,98490.13
2023-01-19T05:22:54.105Z,98489.31
2023-01-19T05:23:41.352Z,98495.16
2023-01-19T05:24:28.278Z,98491.97
2023-01-19T05:25:15.060Z,98488.31
2023-01-19T05:26:02.855Z,98490.31
2023-01-19T05:26:49.737Z,98488.66
2023-01-19T05:27:37.259Z,98487.81
2023-01-19T05:28:24.051Z,98484.34
2023-01-19T05:29:10.852Z,98489.00
2023-01-19T05:29:57.700Z,98486.63
2023-01-19T05:30:44.661Z,98490.50
2023-01-19T05:31:31.632Z,98491.63
2023-01-19T05:32:18.496Z,98479.16
2023-01-19T05:33:05.630Z,98477.97
2023-01-19T05:33:52.421Z,98487.81
2023-01-19T05:34:39.603Z,98481.19
2023-01-19T05:35:35.718Z,98471.50
2023-01-19T05:36:23.192Z,98474.84
2023-01-19T05:37:10.100Z,98481.84
2023-01-19T05:37:57.090Z,98466.84
2023-01-19T05:38:43.937Z,98474.34
2023-01-19T05:39:30.919Z,98472.16
2023-01-19T05:40:17.771Z,98473.19
2023-01-19T05:41:04.674Z,98472.00
2023-01-19T05:41:51.500Z,98469.34
2023-01-19T05:42:38.363Z,98467.69
2023-01-19T05:43:28.124Z,98456.38
2023-01-19T05:44:14.980Z,98463.66
2023-01-19T05:45:01.819Z,98461.87
2023-01-19T05:45:48.623Z,98456.53
2023-01-19T05:46:35.590Z,98454.37
2023-01-19T05:47:22.399Z,98457.03
2023-01-19T05:48:10.217Z,98461.03
2023-01-19T05:48:57.190Z,98468.00
2023-01-19T05:49:43.980Z,98464.16
2023-01-19T05:50:31.011Z,98466.00
2023-01-19T05:51:17.792Z,98468.34
2023-01-19T05:52:04.776Z,98464.53
2023-01-19T05:52:53.554Z,98464.00
2023-01-19T05:53:40.371Z,98458.34
2023-01-19T05:54:27.222Z,98452.69
2023-01-19T05:55:15.570Z,98454.53
2023-01-19T05:56:03.789Z,98452.38
2023-01-19T05:56:50.601Z,98443.53
2023-01-19T05:57:37.508Z,98436.41
2023-01-19T05:58:24.522Z,98439.37
2023-01-19T05:59:11.676Z,98441.22
2023-01-19T05:59:58.490Z,98447.19
2023-01-19T06:00:45.297Z,98449.69
2023-01-19T06:01:33.359Z,98453.69
2023-01-19T06:02:20.345Z,98458.34
2023-01-19T06:03:07.286Z,98471.50
2023-01-19T06:03:54.880Z,98471.00
2023-01-19T06:04:41.765Z,98478.34
2023-01-19T06:05:28.979Z,98474.50
2023-01-19T06:06:15.829Z,98476.00
2023-01-19T06:07:03.081Z,98485.81
2023-01-19T06:07:49.938Z,98489.31
2023-01-19T06:08:36.813Z,98483.50
2023-01-19T06:09:23.724Z,98483.50
2023-01-19T06:10:11.373Z,98484.34
2023-01-19T06:10:58.280Z,98477.66
2023-01-19T06:11:46.101Z,98469.84
2023-01-19T06:12:32.980Z,98465.53
2023-01-19T06:13:20.121Z,98463.84
2023-01-19T06:14:06.985Z,98466.19
2023-01-19T06:14:53.839Z,98460.19
2023-01-19T06:15:40.611Z,98460.50
2023-01-19T06:16:27.464Z,98463.19
2023-01-19T06:17:14.331Z,98469.84
2023-01-19T06:18:01.318Z,98472.50
2023-01-19T06:18:48.121Z,98476.84
2023-01-19T06:19:35.339Z,98480.34
2023-01-19T06:20:22.421Z,98485.00
2023-01-19T06:21:10.601Z,98487.16
2023-01-19T06:21:57.911Z,98482.69
2023-01-19T06:22:44.930Z,98481.81
2023-01-19T06:23:33.011Z,98487.66
2023-01-19T06:24:20.003Z,98487.34
2023-01-19T06:25:07.307Z,98488.31
2023-01-19T06:25:54.159Z,98489.16
2023-01-19T06:26:40.961Z,98484.69
2023-01-19T06:27:27.891Z,98488.84
2023-01-19T06:28:14.723Z,98490.84
2023-01-19T06:29:01.604Z,98494.16
2023-01-19T06:29:48.480Z,98492.00
2023-01-19T06:30:35.515Z,98487.34
2023-01-19T06:31:22.760Z,98501.81
2023-01-19T06:32:09.705Z,98504.31
2023-01-19T06:32:56.541Z,98498.66
2023-01-19T06:33:43.387Z,98500.00
2023-01-19T06:34:30.233Z,98500.66
2023-01-19T06:35:18.477Z,98498.16
2023-01-19T06:36:05.763Z,98494.97
2023-01-19T06:36:52.613Z,98490.31
2023-01-19T06:37:39.600Z,98490.00
2023-01-19T06:38:26.441Z,98487.00
2023-01-19T06:39:13.454Z,98487.81
2023-01-19T06:40:00.572Z,98484.34
2023-01-19T06:40:54.069Z,98479.50
2023-01-19T06:41:40.974Z,98480.50
2023-01-19T06:42:27.823Z,98481.16
2023-01-19T06:43:14.712Z,98488.00
2023-01-19T06:44:02.052Z,98491.66
2023-01-19T06:44:48.920Z,98491.31
2023-01-19T06:45:35.991Z,98493.50
2023-01-19T06:46:23.010Z,98491.66
2023-01-19T06:47:15.764Z,98494.97
2023-01-19T06:48:03.865Z,98490.50
2023-01-19T06:48:50.660Z,98486.16
2023-01-19T06:49:37.459Z,98482.97
2023-01-19T06:50:24.332Z,98489.97
2023-01-19T06:51:11.178Z,98487.47
2023-01-19T06:51:57.985Z,98492.81
2023-01-19T06:52:46.856Z,98489.19
2023-01-19T06:53:34.028Z,98481.84
2023-01-19T06:54:20.839Z,98480.00
2023-01-19T06:55:10.919Z,98488.81
2023-01-19T06:56:02.030Z,98484.66
2023-01-19T06:56:49.951Z,98478.31
2023-01-19T06:57:39.045Z,98472.50
2023-01-19T06:58:25.945Z,98463.38
2023-01-19T06:59:12.791Z,98465.00
2023-01-19T07:00:00.920Z,98454.19
2023-01-19T07:00:51.880Z,98456.34
2023-01-19T07:01:38.928Z,98467.00
2023-01-19T07:02:28.580Z,98455.69
2023-01-19T07:03:22.346Z,98460.03
2023-01-19T07:04:09.219Z,98469.00
2023-01-19T07:04:57.034Z,98465.00
2023-01-19T07:05:43.908Z,98468.34
2023-01-19T07:06:30.753Z,98466.50
2023-01-19T07:07:17.649Z,98474.34
2023-01-19T07:08:04.696Z,98467.84
2023-01-19T07:08:51.528Z,98467.53
2023-01-19T07:09:38.362Z,98469.37
2023-01-19T07:10:25.343Z,98479.34
2023-01-19T07:11:26.262Z,98465.03
2023-01-19T07:12:19.150Z,98477.00
2023-01-19T07:13:05.990Z,98467.38
2023-01-19T07:13:55.149Z,98470.03
2023-01-19T07:14:41.985Z,98472.19
2023-01-19T07:15:28.858Z,98468.19
2023-01-19T07:16:15.795Z,98466.84
2023-01-19T07:17:03.193Z,98477.69
2023-01-19T07:17:50.854Z,98470.00
2023-01-19T07:18:38.600Z,98472.34
2023-01-19T07:19:25.430Z,98473.31
2023-01-19T07:20:14.563Z,98472.66
2023-01-19T07:21:01.752Z,98465.84
2023-01-19T07:21:48.551Z,98475.16
2023-01-19T07:22:35.311Z,98483.81
2023-01-19T07:23:22.111Z,98477.47
2023-01-19T07:24:08.912Z,98489.97
2023-01-19T07:24:55.704Z,98483.47
2023-01-19T07:25:45.822Z,98490.66
2023-01-19T07:26:32.611Z,98501.16
2023-01-19T07:27:19.418Z,98502.47
2023-01-19T07:28:06.226Z,98509.66
2023-01-19T07:28:53.114Z,98510.31
2023-01-19T07:29:40.059Z,98515.31
2023-01-19T07:30:27.423Z,98516.78
2023-01-19T07:31:17.724Z,98517.16
2023-01-19T07:32:04.710Z,98526.94
2023-01-19T07:32:51.711Z,98530.47
2023-01-19T07:33:38.556Z,98528.28
2023-01-19T07:34:25.353Z,98525.13
2023-01-19T07:35:12.187Z,98523.47
2023-01-19T07:35:59.355Z,98512.63
2023-01-19T07:36:46.153Z,98512.97
2023-01-19T07:37:33.021Z,98510.78
2023-01-19T07:38:20.512Z,98509.31
2023-01-19T07:39:07.520Z,98514.63
2023-01-19T07:39:54.343Z,98514.28
2023-01-19T07:40:41.580Z,98516.13
2023-01-19T07:41:28.381Z,98513.63
2023-01-19T07:42:15.277Z,98505.16
2023-01-19T07:43:03.196Z,98515.66
2023-01-19T07:43:51.544Z,98518.47
2023-01-19T07:44:38.421Z,98512.47
2023-01-19T07:45:27.154Z,98515.97
2023-01-19T07:46:14.714Z,98520.47
2023-01-19T07:47:01.593Z,98528.13
2023-01-19T07:47:51.211Z,98532.13
2023-01-19T07:48:38.071Z,98527.81
2023-01-19T07:49:25.129Z,98525.97
2023-01-19T07:50:13.918Z,98527.97
2023-01-19T07:51:05.926Z,98523.09
2023-01-19T07:51:52.855Z,98521.97
2023-01-19T07:52:39.853Z,98514.78
2023-01-19T07:53:26.681Z,98521.63
2023-01-19T07:54:13.522Z,98517.47
2023-01-19T07:55:00.349Z,98518.28
2023-01-19T07:55:47.548Z,98518.62
2023-01-19T07:56:34.382Z,98524.63
2023-01-19T07:57:21.700Z,98521.09
2023-01-19T07:58:08.556Z,98515.09
2023-01-19T07:58:55.982Z,98521.09
2023-01-19T07:59:43.272Z,98512.44
2023-01-19T08:00:30.066Z,98521.78
2023-01-19T08:01:16.989Z,98510.28
2023-01-19T08:02:04.058Z,98516.94
2023-01-19T08:02:52.021Z,98511.09
2023-01-19T08:03:39.120Z,98508.63
2023-01-19T08:04:29.238Z,98507.28
2023-01-19T08:05:17.694Z,98496.28
2023-01-19T08:06:05.353Z,98499.78
2023-01-19T08:06:52.402Z,98496.28
2023-01-19T08:07:39.217Z,98512.63
2023-01-19T08:08:26.136Z,98515.97
2023-01-19T08:09:13.471Z,98510.62
2023-01-19T08:10:00.359Z,98524.28
2023-01-19T08:10:50.557Z,98529.75
2023-01-19T08:11:38.231Z,98526.78
2023-01-19T08:12:25.093Z,98514.44
2023-01-19T08:13:11.922Z,98515.09
2023-01-19T08:13:58.981Z,98514.25
2023-01-19T08:14:45.771Z,98515.97
2023-01-19T08:15:32.683Z,98512.13
2023-01-19T08:16:19.560Z,98519.28
2023-01-19T08:17:06.381Z,98522.59
2023-01-19T08:18:02.920Z,98517.75
2023-01-19T08:18:49.720Z,98520.59
2023-01-19T08:19:36.544Z,98509.09
2023-01-19T08:20:23.551Z,98515.09
2023-01-19T08:21:10.431Z,98517.44
2023-01-19T08:21:59.079Z,98525.59
2023-01-19T08:22:47.738Z,98516.72
2023-01-19T08:23:34.764Z,98522.06
2023-01-19T08:24:24.044Z,98525.91
2023-01-19T08:25:10.884Z,98521.91
2023-01-19T08:25:57.711Z,98536.78
2023-01-19T08:26:44.687Z,98533.59
2023-01-19T08:27:31.516Z,98531.06
2023-01-19T08:28:18.448Z,98529.75
2023-01-19T08:29:05.978Z,98538.41
2023-01-19T08:29:54.590Z,98541.09
2023-01-19T08:30:43.913Z,98542.94
2023-01-19T08:31:31.459Z,98548.56
2023-01-19T08:32:18.572Z,98551.09
2023-01-19T08:33:08.286Z,98543.91
2023-01-19T08:33:55.609Z,98558.44
2023-01-19T08:34:42.531Z,98552.56
2023-01-19T08:35:33.567Z,98557.59
2023-01-19T08:36:21.502Z,98558.78
2023-01-19T08:37:08.352Z,98562.44
2023-01-19T08:37:58.131Z,98571.75
2023-01-19T08:38:48.009Z,98572.78
2023-01-19T08:39:34.898Z,98578.28
2023-01-19T08:40:21.793Z,98583.09
2023-01-19T08:41:08.659Z,98583.09
2023-01-19T08:41:55.551Z,98584.59
2023-01-19T08:42:42.411Z,98569.59
2023-01-19T08:43:29.277Z,98572.94
2023-01-19T08:44:16.269Z,98559.09
2023-01-19T08:45:03.251Z,98555.09
2023-01-19T08:45:53.602Z,98557.25
2023-01-19T08:46:40.447Z,98554.63
2023-01-19T08:47:27.427Z,98559.91
2023-01-19T08:48:15.834Z,98566.78
2023-01-19T08:49:02.729Z,98569.09
2023-01-19T08:49:49.495Z,98570.47
2023-01-19T08:50:36.318Z,98580.78
2023-01-19T08:51:23.161Z,98579.91
2023-01-19T08:52:09.951Z,98577.09
2023-01-19T08:52:58.267Z,98570.13
2023-01-19T08:53:45.262Z,98581.59
2023-01-19T08:54:32.150Z,98576.56
2023-01-19T08:55:19.023Z,98570.06
2023-01-19T08:56:12.309Z,98575.09
2023-01-19T08:56:59.348Z,98570.06
2023-01-19T08:57:46.230Z,98570.94
2023-01-19T08:58:32.980Z,98567.75
2023-01-19T08:59:19.861Z,98571.25
2023-01-19T09:00:10.255Z,98566.94
2023-01-19T09:01:01.029Z,98577.59
2023-01-19T09:01:48.962Z,98569.25
2023-01-19T09:02:36.071Z,98572.28
2023-01-19T09:03:23.143Z,98583.09
2023-01-19T09:04:10.055Z,98580.63
2023-01-19T09:04:56.923Z,98583.59
2023-01-19T09:05:45.861Z,98575.91
2023-01-19T09:06:33.032Z,98573.75
2023-01-19T09:07:19.851Z,98565.41
2023-01-19T09:08:10.534Z,98576.56
2023-01-19T09:08:57.877Z,98570.94
2023-01-19T09:09:44.757Z,98575.91
2023-01-19T09:10:36.070Z,98568.41
2023-01-19T09:11:23.134Z,98569.91
2023-01-19T09:12:09.950Z,98572.94
2023-01-19T09:12:56.791Z,98577.59
2023-01-19T09:13:44.017Z,98573.75
2023-01-19T09:14:30.951Z,98575.75
2023-01-19T09:15:17.802Z,98566.94
2023-01-19T09:16:05.026Z,98575.91
2023-01-19T09:16:51.960Z,98571.59
2023-01-19T09:17:38.770Z,98575.09
2023-01-19T09:18:25.601Z,98561.25
2023-01-19T09:19:14.171Z,98569.91
2023-01-19T09:20:01.024Z,98557.59
2023-01-19T09:20:49.515Z,98561.59
2023-01-19T09:21:36.422Z,98563.91
2023-01-19T09:22:23.291Z,98563.75
2023-01-19T09:23:11.350Z,98565.09
2023-01-19T09:23:58.293Z,98547.06
2023-01-19T09:24:45.165Z,98562.06
2023-01-19T09:25:32.865Z,98555.41
2023-01-19T09:26:19.752Z,98550.41
2023-01-19T09:27:06.648Z,98553.06
2023-01-19T09:27:53.720Z,98543.22
2023-01-19T09:28:40.585Z,98560.41
2023-01-19T09:29:27.388Z,98541.75
2023-01-19T09:30:14.829Z,98557.59
2023-01-19T09:31:05.865Z,98554.56